sensor_id;sensor_type;location;lat;lon;timestamp;pressure;altitude;pressure_sealevel;temperature;humidity
33949;BME280;20229;49.856;19.030;2023-12-04T00:00:23;102289.05;;;-1.92;89.69
33949;BME280;20229;49.856;19.030;2023-12-04T00:05:44;102298.03;;;-1.88;89.95
33949;BME280;20229;49.856;19.030;2023-12-04T00:10:59;102297.16;;;-1.87;90.20
33949;BME280;20229;49.856;19.030;2023-12-04T00:16:13;102298.16;;;-1.82;90.09
33949;BME280;20229;49.856;19.030;2023-12-04T00:21:27;102293.70;;;-1.83;90.24
33949;BME280;20229;49.856;19.030;2023-12-04T00:26:43;102296.38;;;-1.82;90.41
33949;BME280;20229;49.856;19.030;2023-12-04T00:31:57;102292.88;;;-1.79;90.55
33949;BME280;20229;49.856;19.030;2023-12-04T00:37:12;102291.99;;;-1.78;90.72
33949;BME280;20229;49.856;19.030;2023-12-04T00:42:27;102287.52;;;-1.79;90.70
33949;BME280;20229;49.856;19.030;2023-12-04T00:47:41;102289.33;;;-1.77;90.99
33949;BME280;20229;49.856;19.030;2023-12-04T00:52:55;102305.44;;;-1.75;91.08
33949;BME280;20229;49.856;19.030;2023-12-04T00:58:09;102303.64;;;-1.76;91.24
33949;BME280;20229;49.856;19.030;2023-12-04T01:03:23;102302.72;;;-1.77;91.53
33949;BME280;20229;49.856;19.030;2023-12-04T01:08:40;102300.97;;;-1.76;91.77
33949;BME280;20229;49.856;19.030;2023-12-04T01:13:54;102304.50;;;-1.77;91.96
33949;BME280;20229;49.856;19.030;2023-12-04T01:19:08;102311.68;;;-1.76;91.97
33949;BME280;20229;49.856;19.030;2023-12-04T01:24:22;102309.01;;;-1.76;92.25
33949;BME280;20229;49.856;19.030;2023-12-04T01:29:36;102307.11;;;-1.80;92.35
33949;BME280;20229;49.856;19.030;2023-12-04T01:34:50;102309.70;;;-1.86;92.14
33949;BME280;20229;49.856;19.030;2023-12-04T01:40:07;102307.83;;;-1.90;92.46
33949;BME280;20229;49.856;19.030;2023-12-04T01:45:24;102311.28;;;-1.95;92.45
33949;BME280;20229;49.856;19.030;2023-12-04T01:50:40;102311.25;;;-1.98;92.57
33949;BME280;20229;49.856;19.030;2023-12-04T01:55:54;102307.61;;;-2.01;92.70
33949;BME280;20229;49.856;19.030;2023-12-04T02:01:09;102308.44;;;-2.04;92.80
33949;BME280;20229;49.856;19.030;2023-12-04T02:06:24;102306.58;;;-2.08;92.46
33949;BME280;20229;49.856;19.030;2023-12-04T02:11:39;102296.70;;;-2.10;92.85
33949;BME280;20229;49.856;19.030;2023-12-04T02:16:54;102300.21;;;-2.13;92.60
33949;BME280;20229;49.856;19.030;2023-12-04T02:22:09;102298.41;;;-2.14;92.98
33949;BME280;20229;49.856;19.030;2023-12-04T02:27:29;102290.36;;;-2.15;92.74
33949;BME280;20229;49.856;19.030;2023-12-04T02:32:48;102304.59;;;-2.17;92.78
33949;BME280;20229;49.856;19.030;2023-12-04T02:38:03;102290.30;;;-2.19;92.58
33949;BME280;20229;49.856;19.030;2023-12-04T02:43:19;102290.17;;;-2.23;92.42
33949;BME280;20229;49.856;19.030;2023-12-04T02:48:33;102278.49;;;-2.28;92.68
33949;BME280;20229;49.856;19.030;2023-12-04T02:53:47;102282.04;;;-2.29;92.66
33949;BME280;20229;49.856;19.030;2023-12-04T02:59:02;102301.61;;;-2.30;92.58
33949;BME280;20229;49.856;19.030;2023-12-04T03:04:16;102293.64;;;-2.29;92.71
33949;BME280;20229;49.856;19.030;2023-12-04T03:09:30;102297.14;;;-2.31;92.69
33949;BME280;20229;49.856;19.030;2023-12-04T03:14:44;102288.16;;;-2.35;92.62
33949;BME280;20229;49.856;19.030;2023-12-04T03:19:58;102290.66;;;-2.43;92.68
33949;BME280;20229;49.856;19.030;2023-12-04T03:25:12;102295.05;;;-2.46;92.50
33949;BME280;20229;49.856;19.030;2023-12-04T03:30:29;102299.26;;;-2.57;92.65
33949;BME280;20229;49.856;19.030;2023-12-04T03:35:43;102313.21;;;-2.69;92.29
33949;BME280;20229;49.856;19.030;2023-12-04T03:40:58;102308.47;;;-2.82;91.58
33949;BME280;20229;49.856;19.030;2023-12-04T03:46:13;102309.94;;;-2.95;91.44
33949;BME280;20229;49.856;19.030;2023-12-04T03:51:28;102319.40;;;-3.08;91.32
33949;BME280;20229;49.856;19.030;2023-12-04T03:56:42;102314.58;;;-3.23;90.71
33949;BME280;20229;49.856;19.030;2023-12-04T04:01:56;102333.86;;;-3.34;91.07
33949;BME280;20229;49.856;19.030;2023-12-04T04:07:11;102333.77;;;-3.38;90.83
33949;BME280;20229;49.856;19.030;2023-12-04T04:12:27;102347.91;;;-3.42;90.92
33949;BME280;20229;49.856;19.030;2023-12-04T04:17:41;102333.58;;;-3.45;90.90
33949;BME280;20229;49.856;19.030;2023-12-04T04:22:55;102328.05;;;-3.51;90.76
33949;BME280;20229;49.856;19.030;2023-12-04T04:28:09;102333.11;;;-3.62;90.51
33949;BME280;20229;49.856;19.030;2023-12-04T04:33:23;102331.91;;;-3.73;90.96
33949;BME280;20229;49.856;19.030;2023-12-04T04:38:39;102347.03;;;-3.74;90.94
33949;BME280;20229;49.856;19.030;2023-12-04T04:43:54;102338.12;;;-3.74;91.34
33949;BME280;20229;49.856;19.030;2023-12-04T04:49:09;102336.45;;;-3.71;91.16
33949;BME280;20229;49.856;19.030;2023-12-04T04:54:23;102331.04;;;-3.72;91.09
33949;BME280;20229;49.856;19.030;2023-12-04T04:59:37;102323.55;;;-3.86;91.52
33949;BME280;20229;49.856;19.030;2023-12-04T05:04:51;102340.70;;;-3.77;91.83
33949;BME280;20229;49.856;19.030;2023-12-04T05:10:07;102337.17;;;-3.76;91.83
33949;BME280;20229;49.856;19.030;2023-12-04T05:15:21;102344.30;;;-3.75;91.79
33949;BME280;20229;49.856;19.030;2023-12-04T05:20:35;102339.13;;;-3.69;92.19
33949;BME280;20229;49.856;19.030;2023-12-04T05:25:49;102332.10;;;-3.67;91.96
33949;BME280;20229;49.856;19.030;2023-12-04T05:31:06;102333.89;;;-3.66;92.16
33949;BME280;20229;49.856;19.030;2023-12-04T05:36:20;102337.46;;;-3.66;92.31
33949;BME280;20229;49.856;19.030;2023-12-04T05:41:34;102328.48;;;-3.68;92.40
33949;BME280;20229;49.856;19.030;2023-12-04T05:46:49;102319.49;;;-3.71;92.51
33949;BME280;20229;49.856;19.030;2023-12-04T05:52:04;102321.25;;;-3.73;92.25
33949;BME280;20229;49.856;19.030;2023-12-04T05:57:18;102322.86;;;-3.78;92.01
33949;BME280;20229;49.856;19.030;2023-12-04T06:02:32;102320.83;;;-3.89;91.77
33949;BME280;20229;49.856;19.030;2023-12-04T06:07:46;102318.74;;;-3.99;91.62
33949;BME280;20229;49.856;19.030;2023-12-04T06:13:04;102311.34;;;-4.09;91.42
33949;BME280;20229;49.856;19.030;2023-12-04T06:18:18;102309.97;;;-4.25;91.05
33949;BME280;20229;49.856;19.030;2023-12-04T06:23:34;102306.75;;;-4.43;90.81
33949;BME280;20229;49.856;19.030;2023-12-04T06:28:49;102301.73;;;-4.63;90.50
33949;BME280;20229;49.856;19.030;2023-12-04T06:34:04;102309.29;;;-4.76;90.67
33949;BME280;20229;49.856;19.030;2023-12-04T06:39:19;102301.85;;;-4.87;90.35
33949;BME280;20229;49.856;19.030;2023-12-04T06:44:37;102307.84;;;-4.94;90.50
33949;BME280;20229;49.856;19.030;2023-12-04T06:49:51;102320.73;;;-5.06;89.93
33949;BME280;20229;49.856;19.030;2023-12-04T06:55:07;102327.58;;;-5.14;89.79
33949;BME280;20229;49.856;19.030;2023-12-04T07:00:22;102313.94;;;-5.23;89.67
33949;BME280;20229;49.856;19.030;2023-12-04T07:05:36;102306.68;;;-5.29;89.42
33949;BME280;20229;49.856;19.030;2023-12-04T07:10:51;102311.67;;;-5.38;89.32
33949;BME280;20229;49.856;19.030;2023-12-04T07:16:06;102316.88;;;-5.41;88.81
33949;BME280;20229;49.856;19.030;2023-12-04T07:21:20;102316.88;;;-5.41;89.26
33949;BME280;20229;49.856;19.030;2023-12-04T07:26:35;102323.40;;;-5.33;90.12
33949;BME280;20229;49.856;19.030;2023-12-04T07:31:49;102329.19;;;-5.19;90.90
33949;BME280;20229;49.856;19.030;2023-12-04T07:37:04;102325.48;;;-4.97;91.54
33949;BME280;20229;49.856;19.030;2023-12-04T07:42:17;102336.76;;;-4.77;91.88
33949;BME280;20229;49.856;19.030;2023-12-04T07:47:32;102330.18;;;-4.62;92.04
33949;BME280;20229;49.856;19.030;2023-12-04T07:52:46;102323.84;;;-4.37;92.66
33949;BME280;20229;49.856;19.030;2023-12-04T07:58:01;102321.10;;;-4.10;92.17
33949;BME280;20229;49.856;19.030;2023-12-04T08:03:15;102326.21;;;-3.86;92.05
33949;BME280;20229;49.856;19.030;2023-12-04T08:08:31;102330.33;;;-3.67;91.75
33949;BME280;20229;49.856;19.030;2023-12-04T08:13:46;102322.00;;;-3.46;91.58
33949;BME280;20229;49.856;19.030;2023-12-04T08:19:00;102326.33;;;-3.16;91.12
33949;BME280;20229;49.856;19.030;2023-12-04T08:24:14;102312.70;;;-2.91;90.49
33949;BME280;20229;49.856;19.030;2023-12-04T08:29:31;102320.38;;;-2.68;89.77
33949;BME280;20229;49.856;19.030;2023-12-04T08:34:46;102310.99;;;-2.51;89.75
33949;BME280;20229;49.856;19.030;2023-12-04T08:40:00;102321.37;;;-2.24;89.28
33949;BME280;20229;49.856;19.030;2023-12-04T08:45:14;102320.02;;;-2.05;88.70
33949;BME280;20229;49.856;19.030;2023-12-04T08:50:28;102326.72;;;-1.83;88.10
33949;BME280;20229;49.856;19.030;2023-12-04T08:55:42;102311.01;;;-1.64;86.68
33949;BME280;20229;49.856;19.030;2023-12-04T09:00:58;102310.45;;;-1.47;86.96
33949;BME280;20229;49.856;19.030;2023-12-04T09:06:12;102309.11;;;-1.22;86.90
33949;BME280;20229;49.856;19.030;2023-12-04T09:11:29;102299.76;;;-0.93;85.67
33949;BME280;20229;49.856;19.030;2023-12-04T09:16:43;102292.84;;;-0.79;85.21
33949;BME280;20229;49.856;19.030;2023-12-04T09:21:58;102302.98;;;-0.60;84.37
33949;BME280;20229;49.856;19.030;2023-12-04T09:27:12;102289.78;;;-0.44;83.00
33949;BME280;20229;49.856;19.030;2023-12-04T09:32:26;102291.81;;;-0.27;83.47
33949;BME280;20229;49.856;19.030;2023-12-04T09:37:40;102280.41;;;-0.09;82.32
33949;BME280;20229;49.856;19.030;2023-12-04T09:42:54;102272.65;;;0.14;81.89
33949;BME280;20229;49.856;19.030;2023-12-04T09:48:09;102264.75;;;0.31;81.14
33949;BME280;20229;49.856;19.030;2023-12-04T09:53:25;102249.68;;;0.44;80.71
33949;BME280;20229;49.856;19.030;2023-12-04T09:58:41;102230.04;;;0.53;81.40
33949;BME280;20229;49.856;19.030;2023-12-04T10:08:56;102231.15;;;0.76;80.30
33949;BME280;20229;49.856;19.030;2023-12-04T10:14:19;102224.93;;;0.85;80.13
33949;BME280;20229;49.856;19.030;2023-12-04T10:19:34;102204.45;;;1.01;79.42
33949;BME280;20229;49.856;19.030;2023-12-04T10:24:48;102197.32;;;1.09;79.46
33949;BME280;20229;49.856;19.030;2023-12-04T10:30:02;102197.39;;;1.18;77.57
33949;BME280;20229;49.856;19.030;2023-12-04T10:35:20;102188.41;;;1.19;77.17
33949;BME280;20229;49.856;19.030;2023-12-04T10:40:38;102118.34;;;0.91;78.10
33949;BME280;20229;49.856;19.030;2023-12-04T10:45:52;102180.47;;;1.39;76.01
33949;BME280;20229;49.856;19.030;2023-12-04T10:51:08;102187.66;;;1.41;75.25
33949;BME280;20229;49.856;19.030;2023-12-04T10:56:38;102167.04;;;1.47;76.19
33949;BME280;20229;49.856;19.030;2023-12-04T11:01:51;102162.60;;;1.56;76.05
33949;BME280;20229;49.856;19.030;2023-12-04T11:07:09;102133.83;;;1.38;75.00
33949;BME280;20229;49.856;19.030;2023-12-04T11:12:25;102152.76;;;1.63;75.03
33949;BME280;20229;49.856;19.030;2023-12-04T11:17:47;102157.23;;;1.61;73.49
33949;BME280;20229;49.856;19.030;2023-12-04T11:23:03;102143.80;;;1.67;73.66
33949;BME280;20229;49.856;19.030;2023-12-04T11:28:20;102139.29;;;1.66;73.59
33949;BME280;20229;49.856;19.030;2023-12-04T11:33:38;102140.21;;;1.68;75.22
33949;BME280;20229;49.856;19.030;2023-12-04T11:38:52;102131.23;;;1.69;74.22
33949;BME280;20229;49.856;19.030;2023-12-04T11:44:12;102133.03;;;1.67;75.05
33949;BME280;20229;49.856;19.030;2023-12-04T11:49:30;102130.34;;;1.68;73.01
33949;BME280;20229;49.856;19.030;2023-12-04T12:00:19;102111.49;;;1.76;73.28
33949;BME280;20229;49.856;19.030;2023-12-04T12:05:36;102098.96;;;1.77;73.70
33949;BME280;20229;49.856;19.030;2023-12-04T12:10:53;102089.97;;;1.79;72.69
33949;BME280;20229;49.856;19.030;2023-12-04T12:16:09;102074.70;;;1.71;72.67
33949;BME280;20229;49.856;19.030;2023-12-04T12:21:25;102073.82;;;1.70;72.79
33949;BME280;20229;49.856;19.030;2023-12-04T12:26:39;102063.05;;;1.70;72.87
33949;BME280;20229;49.856;19.030;2023-12-04T12:31:54;102056.74;;;1.65;73.19
33949;BME280;20229;49.856;19.030;2023-12-04T12:37:08;102043.27;;;1.59;72.13
33949;BME280;20229;49.856;19.030;2023-12-04T12:42:27;102037.89;;;1.57;73.41
33949;BME280;20229;49.856;19.030;2023-12-04T12:47:44;102031.60;;;1.58;73.10
33949;BME280;20229;49.856;19.030;2023-12-04T12:53:01;102024.43;;;1.57;73.99
33949;BME280;20229;49.856;19.030;2023-12-04T12:58:16;102011.87;;;1.58;72.82
33949;BME280;20229;49.856;19.030;2023-12-04T13:03:35;102010.98;;;1.56;72.19
33949;BME280;20229;49.856;19.030;2023-12-04T13:08:52;102000.22;;;1.53;74.07
33949;BME280;20229;49.856;19.030;2023-12-04T13:14:06;101993.93;;;1.46;71.39
33949;BME280;20229;49.856;19.030;2023-12-04T13:19:23;101988.52;;;1.40;73.37
33949;BME280;20229;49.856;19.030;2023-12-04T13:24:37;101985.84;;;1.35;73.73
33949;BME280;20229;49.856;19.030;2023-12-04T13:29:51;101982.21;;;1.30;75.22
33949;BME280;20229;49.856;19.030;2023-12-04T13:35:06;101978.61;;;1.19;75.70
33949;BME280;20229;49.856;19.030;2023-12-04T13:40:24;101966.04;;;1.03;75.08
33949;BME280;20229;49.856;19.030;2023-12-04T13:45:47;101956.98;;;0.79;76.04
33949;BME280;20229;49.856;19.030;2023-12-04T13:51:01;101952.45;;;0.64;77.06
33949;BME280;20229;49.856;19.030;2023-12-04T13:56:16;101939.86;;;0.50;77.50
33949;BME280;20229;49.856;19.030;2023-12-04T14:02:09;101936.17;;;0.29;78.22
33949;BME280;20229;49.856;19.030;2023-12-04T14:07:26;101922.63;;;0.12;78.56
33949;BME280;20229;49.856;19.030;2023-12-04T14:12:41;101921.62;;;-0.10;79.12
33949;BME280;20229;49.856;19.030;2023-12-04T14:17:55;101915.27;;;-0.19;79.60
33949;BME280;20229;49.856;19.030;2023-12-04T14:23:11;101910.70;;;-0.34;80.67
33949;BME280;20229;49.856;19.030;2023-12-04T14:28:26;101911.48;;;-0.46;80.89
33949;BME280;20229;49.856;19.030;2023-12-04T14:33:40;101909.57;;;-0.61;81.59
33949;BME280;20229;49.856;19.030;2023-12-04T14:38:54;101899.68;;;-0.68;81.72
33949;BME280;20229;49.856;19.030;2023-12-04T14:44:08;101911.20;;;-0.78;82.41
33949;BME280;20229;49.856;19.030;2023-12-04T14:49:23;101903.06;;;-0.89;82.89
33949;BME280;20229;49.856;19.030;2023-12-04T14:54:38;101900.27;;;-1.00;83.27
33949;BME280;20229;49.856;19.030;2023-12-04T15:00:04;101895.77;;;-1.04;84.23
33949;BME280;20229;49.856;19.030;2023-12-04T15:05:29;101881.45;;;-1.09;84.64
33949;BME280;20229;49.856;19.030;2023-12-04T15:10:55;101876.05;;;-1.12;84.95
33949;BME280;20229;49.856;19.030;2023-12-04T15:16:23;101868.83;;;-1.17;85.60
33949;BME280;20229;49.856;19.030;2023-12-04T15:22:17;101875.05;;;-1.23;86.04
33949;BME280;20229;49.856;19.030;2023-12-04T15:27:32;101858.08;;;-1.24;86.15
33949;BME280;20229;49.856;19.030;2023-12-04T15:32:47;101870.55;;;-1.27;87.04
33949;BME280;20229;49.856;19.030;2023-12-04T15:38:01;101861.58;;;-1.28;86.79
33949;BME280;20229;49.856;19.030;2023-12-04T15:43:15;101863.32;;;-1.33;86.66
33949;BME280;20229;49.856;19.030;2023-12-04T15:48:30;101861.54;;;-1.34;87.02
33949;BME280;20229;49.856;19.030;2023-12-04T15:53:44;101871.33;;;-1.34;87.06
33949;BME280;20229;49.856;19.030;2023-12-04T15:58:58;101868.66;;;-1.36;87.43
33949;BME280;20229;49.856;19.030;2023-12-04T16:04:13;101874.81;;;-1.41;87.46
33949;BME280;20229;49.856;19.030;2023-12-04T16:09:27;101860.48;;;-1.47;87.53
33949;BME280;20229;49.856;19.030;2023-12-04T16:14:41;101856.84;;;-1.53;87.40
33949;BME280;20229;49.856;19.030;2023-12-04T16:19:57;101851.45;;;-1.58;87.55
33949;BME280;20229;49.856;19.030;2023-12-04T16:25:13;101849.58;;;-1.65;87.67
33949;BME280;20229;49.856;19.030;2023-12-04T16:30:31;101845.97;;;-1.67;87.67
33949;BME280;20229;49.856;19.030;2023-12-04T16:35:45;101841.45;;;-1.73;88.05
33949;BME280;20229;49.856;19.030;2023-12-04T16:41:00;101820.89;;;-1.75;88.07
33949;BME280;20229;49.856;19.030;2023-12-04T16:46:14;101832.45;;;-1.79;88.27
33949;BME280;20229;49.856;19.030;2023-12-04T16:51:29;101820.81;;;-1.81;88.58
33949;BME280;20229;49.856;19.030;2023-12-04T16:56:48;101819.88;;;-1.86;88.54
33949;BME280;20229;49.856;19.030;2023-12-04T17:02:03;101806.46;;;-1.89;88.95
33949;BME280;20229;49.856;19.030;2023-12-04T17:07:20;101807.34;;;-1.89;89.05
33949;BME280;20229;49.856;19.030;2023-12-04T17:12:34;101806.46;;;-1.89;89.10
33949;BME280;20229;49.856;19.030;2023-12-04T17:17:50;101801.95;;;-1.92;89.15
33949;BME280;20229;49.856;19.030;2023-12-04T17:23:04;101786.73;;;-1.95;89.44
33949;BME280;20229;49.856;19.030;2023-12-04T17:28:18;101795.58;;;-2.02;89.25
33949;BME280;20229;49.856;19.030;2023-12-04T17:33:37;101792.01;;;-2.04;90.07
33949;BME280;20229;49.856;19.030;2023-12-04T17:38:51;101797.30;;;-2.07;89.64
33949;BME280;20229;49.856;19.030;2023-12-04T17:44:08;101781.22;;;-2.10;89.44
33949;BME280;20229;49.856;19.030;2023-12-04T17:49:21;101771.36;;;-2.14;89.68
33949;BME280;20229;49.856;19.030;2023-12-04T17:54:36;101773.11;;;-2.16;90.24
33949;BME280;20229;49.856;19.030;2023-12-04T17:59:50;101770.43;;;-2.18;90.23
33949;BME280;20229;49.856;19.030;2023-12-04T18:05:08;101780.28;;;-2.15;89.86
33949;BME280;20229;49.856;19.030;2023-12-04T18:10:24;101776.66;;;-2.19;89.59
33949;BME280;20229;49.856;19.030;2023-12-04T18:15:39;101764.10;;;-2.24;89.44
33949;BME280;20229;49.856;19.030;2023-12-04T18:20:53;101759.59;;;-2.28;90.09
33949;BME280;20229;49.856;19.030;2023-12-04T18:26:09;101752.45;;;-2.29;90.43
33949;BME280;20229;49.856;19.030;2023-12-04T18:31:24;101761.33;;;-2.30;90.58
33949;BME280;20229;49.856;19.030;2023-12-04T18:36:42;101766.68;;;-2.32;90.24
33949;BME280;20229;49.856;19.030;2023-12-04T18:41:58;101765.74;;;-2.34;90.43
33949;BME280;20229;49.856;19.030;2023-12-04T18:47:17;101764.85;;;-2.34;90.29
33949;BME280;20229;49.856;19.030;2023-12-04T18:52:35;101745.23;;;-2.36;90.30
33949;BME280;20229;49.856;19.030;2023-12-04T18:57:50;101745.23;;;-2.36;90.89
33949;BME280;20229;49.856;19.030;2023-12-04T19:03:04;101721.13;;;-2.39;90.15
33949;BME280;20229;49.856;19.030;2023-12-04T19:08:18;101718.49;;;-2.36;90.03
33949;BME280;20229;49.856;19.030;2023-12-04T19:13:33;101720.27;;;-2.35;90.17
33949;BME280;20229;49.856;19.030;2023-12-04T19:18:49;101715.86;;;-2.32;90.32
33949;BME280;20229;49.856;19.030;2023-12-04T19:24:03;101715.86;;;-2.32;90.42
33949;BME280;20229;49.856;19.030;2023-12-04T19:29:17;101702.49;;;-2.30;90.25
33949;BME280;20229;49.856;19.030;2023-12-04T19:34:32;101707.85;;;-2.32;90.47
33949;BME280;20229;49.856;19.030;2023-12-04T19:39:47;101698.90;;;-2.34;90.82
33949;BME280;20229;49.856;19.030;2023-12-04T19:45:01;101703.39;;;-2.31;90.65
33949;BME280;20229;49.856;19.030;2023-12-04T19:50:15;101700.71;;;-2.31;90.79
33949;BME280;20229;49.856;19.030;2023-12-04T19:55:30;101703.39;;;-2.31;90.76
33949;BME280;20229;49.856;19.030;2023-12-04T20:00:45;101705.17;;;-2.32;90.83
33949;BME280;20229;49.856;19.030;2023-12-04T20:06:00;101693.58;;;-2.32;91.05
33949;BME280;20229;49.856;19.030;2023-12-04T20:11:14;101684.66;;;-2.31;90.99
33949;BME280;20229;49.856;19.030;2023-12-04T20:16:28;101683.77;;;-2.32;90.78
33949;BME280;20229;49.856;19.030;2023-12-04T20:21:43;101686.41;;;-2.33;90.94
33949;BME280;20229;49.856;19.030;2023-12-04T20:26:57;101681.05;;;-2.36;91.07
33949;BME280;20229;49.856;19.030;2023-12-04T20:32:12;101683.69;;;-2.39;90.92
33949;BME280;20229;49.856;19.030;2023-12-04T20:37:26;101689.84;;;-2.47;91.06
33949;BME280;20229;49.856;19.030;2023-12-04T20:42:41;101671.05;;;-2.51;90.82
33949;BME280;20229;49.856;19.030;2023-12-04T20:47:55;101699.42;;;-2.62;90.46
33949;BME280;20229;49.856;19.030;2023-12-04T20:53:11;101697.68;;;-2.60;90.68
33949;BME280;20229;49.856;19.030;2023-12-04T20:58:25;101678.09;;;-2.59;91.21
33949;BME280;20229;49.856;19.030;2023-12-04T21:03:39;101657.67;;;-2.53;91.57
33949;BME280;20229;49.856;19.030;2023-12-04T21:08:53;101650.59;;;-2.48;92.21
33949;BME280;20229;49.856;19.030;2023-12-04T21:14:07;101637.29;;;-2.42;92.08
33949;BME280;20229;49.856;19.030;2023-12-04T21:19:22;101622.23;;;-2.33;92.00
33949;BME280;20229;49.856;19.030;2023-12-04T21:24:36;101600.87;;;-2.30;91.95
33949;BME280;20229;49.856;19.030;2023-12-04T21:29:50;101602.70;;;-2.29;92.10
33949;BME280;20229;49.856;19.030;2023-12-04T21:35:04;101590.21;;;-2.27;91.69
33949;BME280;20229;49.856;19.030;2023-12-04T21:40:18;101589.31;;;-2.26;91.97
33949;BME280;20229;49.856;19.030;2023-12-04T21:45:33;101579.55;;;-2.26;92.17
33949;BME280;20229;49.856;19.030;2023-12-04T21:50:48;101580.44;;;-2.25;92.07
33949;BME280;20229;49.856;19.030;2023-12-04T21:56:03;101585.82;;;-2.22;91.91
33949;BME280;20229;49.856;19.030;2023-12-04T22:01:17;101578.70;;;-2.22;92.50
33949;BME280;20229;49.856;19.030;2023-12-04T22:06:31;101569.74;;;-2.24;92.42
33949;BME280;20229;49.856;19.030;2023-12-04T22:11:46;101564.38;;;-2.25;92.59
33949;BME280;20229;49.856;19.030;2023-12-04T22:17:00;101549.23;;;-2.23;92.36
33949;BME280;20229;49.856;19.030;2023-12-04T22:22:14;101551.94;;;-2.20;92.12
33949;BME280;20229;49.856;19.030;2023-12-04T22:27:29;101551.05;;;-2.21;92.50
33949;BME280;20229;49.856;19.030;2023-12-04T22:32:46;101540.35;;;-2.19;92.31
33949;BME280;20229;49.856;19.030;2023-12-04T22:38:00;101525.27;;;-2.15;92.13
33949;BME280;20229;49.856;19.030;2023-12-04T22:43:14;101520.83;;;-2.09;91.05
33949;BME280;20229;49.856;19.030;2023-12-04T22:48:29;101520.91;;;-2.00;90.34
33949;BME280;20229;49.856;19.030;2023-12-04T22:53:44;101520.97;;;-1.94;89.31
33949;BME280;20229;49.856;19.030;2023-12-04T22:58:58;101513.85;;;-1.88;90.14
33949;BME280;20229;49.856;19.030;2023-12-04T23:04:13;101518.32;;;-1.89;89.90
33949;BME280;20229;49.856;19.030;2023-12-04T23:09:28;101507.63;;;-1.84;89.88
33949;BME280;20229;49.856;19.030;2023-12-04T23:14:42;101501.41;;;-1.80;89.06
33949;BME280;20229;49.856;19.030;2023-12-04T23:19:56;101503.22;;;-1.78;89.14
33949;BME280;20229;49.856;19.030;2023-12-04T23:25:12;101499.66;;;-1.78;89.52
33949;BME280;20229;49.856;19.030;2023-12-04T23:30:26;101489.90;;;-1.73;89.65
33949;BME280;20229;49.856;19.030;2023-12-04T23:35:40;101484.55;;;-1.72;89.88
33949;BME280;20229;49.856;19.030;2023-12-04T23:40:54;101484.55;;;-1.73;89.16
33949;BME280;20229;49.856;19.030;2023-12-04T23:46:08;101479.16;;;-1.75;89.09
33949;BME280;20229;49.856;19.030;2023-12-04T23:51:23;101479.16;;;-1.75;89.24
33949;BME280;20229;49.856;19.030;2023-12-04T23:56:37;101475.57;;;-1.78;89.33
